Orlando International Airport Orlando US
ICAO: KMCO
IATA: MCO
Category: Large
Scheduled Services: Yes

Elevation: 96 ft
TransAlt. 18000 ft.

Airport Communications:
APP/DEP:119.4
ATIS:121.25
CLNC DEL:134.7
GND:121.8
AR OPS:41.5
ST PETERSBURG RDO:122.1
ST PETERSBURG RDO:122.2
TWR:118.45
UNICOM:122.95

KMCO Zoom In..

Runways:

(A) RW 17L length 9001 ft width 150 ft
ILS 110.95 / hdg 185

(B) RW 17R length 10000 ft width 150 ft
ILS 111.75 / hdg 185

(C) RW 18L length 12005 ft width 200 ft
---- / hdg 185

(D) RW 18R length 12005 ft width 200 ft
ILS 111.90 / hdg 185

(E) RW 35L length 10000 ft width 150 ft
ILS 110.50 / hdg 5

(F) RW 35R length 9001 ft width 150 ft
ILS 111.15 / hdg 5

(G) RW 36L length 12005 ft width 200 ft
---- / hdg 5

(H) RW 36R length 12005 ft width 200 ft
ILS 110.70 / hdg 5

Location; KMCO
Day. 23 / Time. 15.13 Zulu
* Altimeter: 30.07
* Temperature: 22° c. 71.6°f.
* Wind from: 210° Speed 06 kn.
Dewpoint: 21° c.
Visibility: 10 Statute Miles.
Clouds: Broken 1000 ft.
Clouds: Broken 6000 ft.
Clouds: Broken 25000 ft.

KMCO 231513Z 21006KT 10SM BKN010 BKN060 BKN250 22/21 A3007 RMK AO2 T02170206


Wind From 210°
Speed 06 kn.

YouTube Music Video
 
jpsmedia.com for Web Design  worldairports.se 2018   terms of use